Main page
METAR-TAF:

METAR-TAF

Airports :

Exeter Airport

Exeter, England

latitude: 50-44N, longitude: 003-25W, elevation: 30 m

Current weather observation

The report was made 39 minutes ago, at 20:50 UTC
Wind 3 kt from the South
Temperature 9°C
Humidity 93%
Pressure 1019 hPa
Visibility: 2000 m
Scattered clouds at a height of 100 ft
mist

METAR: EGTE 202050Z 18003KT 2000 BR SCT001 09/08 Q1019

Time: 22:29 (21:29 UTC)

Forecast

The report was made 46 minutes ago, at 20:43 UTC
Forecast valid from 20 at 20 UTC to 21 at 03 UTC
Wind 3 kt from variable directions
Visibility: 5000 m
Broken clouds at a height of 300 ft
mist
Temporary
from 20 at 20 UTC to 21 at 03 UTC
Visibility: 1000 m
Broken clouds at a height of 100 ft

TAF: EGTE 202043Z 2020/2103 VRB03KT 5000 BR BKN003 TEMPO 2020/2103 1000 BKN001

Weather observations and forecasts of more than 4000 airports (METAR and TAF reports).

The available stations are represented by yellow and red dots on the map.

Hover mouse over dot to see the name of the station.

Then click to see weather observations and forecasts.

To change the map : click on the green buttons with a black cross to zoom in, on the green button with a dash to zoom out, or on the green arrows for adjacent maps.


METAR-TAF: